createdAt,value
2022-08-26T00:02:23.234Z,101454.75
2022-08-26T00:07:44.047Z,101455.53
2022-08-26T00:13:05.468Z,101453.81
2022-08-26T00:18:27.337Z,101452.09
2022-08-26T00:23:51.462Z,101446.94
2022-08-26T00:29:12.616Z,101453.91
2022-08-26T00:34:34.034Z,101447.03
2022-08-26T00:39:54.787Z,101448.03
2022-08-26T00:45:16.167Z,101439.44
2022-08-26T00:50:42.458Z,101445.41
2022-08-26T00:56:08.294Z,101428.81
2022-08-26T01:01:29.074Z,101442.66
2022-08-26T01:06:53.671Z,101429.72
2022-08-26T01:12:14.796Z,101434.84
2022-08-26T01:17:37.603Z,101429.72
2022-08-26T01:23:03.579Z,101430.63
2022-08-26T01:28:28.187Z,101435.06
2022-08-26T01:33:59.408Z,101431.69
2022-08-26T01:39:21.049Z,101437.84
2022-08-26T01:44:47.787Z,101430.09
2022-08-26T01:50:20.098Z,101430.16
2022-08-26T01:55:52.997Z,101426.78
2022-08-26T02:01:14.343Z,101427.00
2022-08-26T02:06:38.930Z,101427.09
2022-08-26T02:12:01.744Z,101423.72
2022-08-26T02:17:29.051Z,101425.59
2022-08-26T02:22:49.907Z,101426.56
2022-08-26T02:28:12.556Z,101422.34
2022-08-26T02:33:33.199Z,101419.84
2022-08-26T02:38:55.769Z,101417.28
2022-08-26T02:44:16.297Z,101413.09
2022-08-26T02:49:37.766Z,101405.38
2022-08-26T02:54:58.622Z,101405.38
2022-08-26T03:00:20.307Z,101408.09
2022-08-26T03:05:42.474Z,101400.44
2022-08-26T03:11:02.995Z,101400.50
2022-08-26T03:16:23.688Z,101398.81
2022-08-26T03:21:44.647Z,101390.25
2022-08-26T03:27:07.811Z,101390.34
2022-08-26T03:32:28.341Z,101386.88
2022-08-26T03:37:49.179Z,101391.28
2022-08-26T03:43:10.678Z,101386.19
2022-08-26T03:48:31.435Z,101383.66
2022-08-26T03:53:52.253Z,101384.56
2022-08-26T03:59:12.584Z,101383.72
2022-08-26T04:04:34.295Z,101384.63
2022-08-26T04:09:58.329Z,101374.22
2022-08-26T04:15:19.264Z,101374.31
2022-08-26T04:20:39.729Z,101375.13
2022-08-26T04:26:01.432Z,101369.88
2022-08-26T04:31:22.763Z,101364.69
2022-08-26T04:36:44.571Z,101363.78
2022-08-26T04:42:55.084Z,101363.78
2022-08-26T04:48:16.922Z,101366.44
2022-08-26T04:53:39.181Z,101364.59
2022-08-26T04:59:00.510Z,101360.25
2022-08-26T05:04:22.011Z,101365.28
2022-08-26T05:09:42.664Z,101366.03
2022-08-26T05:15:03.327Z,101366.72
2022-08-26T05:20:25.794Z,101371.69
2022-08-26T05:25:48.017Z,101366.97
2022-08-26T05:31:23.307Z,101366.53
2022-08-26T05:36:44.327Z,101372.94
2022-08-26T05:42:05.703Z,101363.66
2022-08-26T05:47:26.440Z,101358.72
2022-08-26T05:52:49.795Z,101355.41
2022-08-26T05:58:11.748Z,101362.53
2022-08-26T06:03:37.325Z,101364.50
2022-08-26T06:09:00.481Z,101361.06
2022-08-26T06:14:21.497Z,101367.16
2022-08-26T06:19:42.103Z,101368.09
2022-08-26T06:25:21.414Z,101371.13
2022-08-26T06:30:43.183Z,101377.31
2022-08-26T06:36:04.100Z,101370.25
2022-08-26T06:41:25.697Z,101369.59
2022-08-26T06:46:46.431Z,101379.16
2022-08-26T06:52:11.700Z,101381.72
2022-08-26T06:57:32.927Z,101392.06
2022-08-26T07:02:55.813Z,101397.34
2022-08-26T07:08:16.719Z,101390.09
2022-08-26T07:13:38.583Z,101398.09
2022-08-26T07:18:59.290Z,101410.78
2022-08-26T07:24:21.609Z,101414.22
2022-08-26T07:29:43.689Z,101408.25
2022-08-26T07:35:06.091Z,101396.94
2022-08-26T07:40:27.280Z,101419.94
2022-08-26T07:45:48.093Z,101422.84
2022-08-26T07:51:08.615Z,101430.34
2022-08-26T07:56:29.406Z,101427.75
2022-08-26T08:01:50.373Z,101435.53
2022-08-26T08:07:11.971Z,101435.84
2022-08-26T08:12:32.888Z,101439.31
2022-08-26T08:17:58.880Z,101432.94
2022-08-26T08:23:21.301Z,101439.34
2022-08-26T08:28:41.808Z,101438.91
2022-08-26T08:34:02.274Z,101432.88
2022-08-26T08:39:23.184Z,101437.97
2022-08-26T08:44:52.202Z,101431.91
2022-08-26T08:50:34.105Z,101435.69
2022-08-26T08:56:08.042Z,101433.47
2022-08-26T09:01:42.143Z,101446.16
2022-08-26T09:07:03.042Z,101429.72
2022-08-26T09:12:29.434Z,101427.03
2022-08-26T09:18:10.798Z,101422.69
2022-08-26T09:23:35.907Z,101428.75
2022-08-26T09:29:02.691Z,101417.41
2022-08-26T09:34:26.401Z,101418.06
2022-08-26T09:39:47.017Z,101424.34
2022-08-26T09:45:10.517Z,101422.28
2022-08-26T09:51:00.628Z,101409.28
2022-08-26T09:56:21.971Z,101407.97
2022-08-26T10:01:44.956Z,101410.44
2022-08-26T10:07:09.709Z,101407.47
2022-08-26T10:12:34.548Z,101403.88
2022-08-26T10:18:17.741Z,101404.97
2022-08-26T10:23:43.341Z,101401.94
2022-08-26T10:29:15.598Z,101403.31
2022-08-26T10:34:36.028Z,101411.03
2022-08-26T10:40:08.222Z,101407.16
2022-08-26T10:45:46.599Z,101411.19
2022-08-26T10:51:08.756Z,101409.72
2022-08-26T10:56:48.308Z,101406.66
2022-08-26T11:02:15.314Z,101412.66
2022-08-26T11:07:46.031Z,101419.97
2022-08-26T11:13:07.358Z,101419.06
2022-08-26T11:18:41.370Z,101404.47
2022-08-26T11:24:01.703Z,101404.50
2022-08-26T11:30:00.461Z,101407.72
2022-08-26T11:35:21.415Z,101413.28
2022-08-26T11:40:42.274Z,101415.81
2022-08-26T11:46:09.223Z,101396.81
2022-08-26T11:51:31.562Z,101412.59
2022-08-26T11:56:53.254Z,101390.00
2022-08-26T12:02:17.833Z,101392.06
2022-08-26T12:07:38.920Z,101395.13
2022-08-26T12:13:06.170Z,101382.28
2022-08-26T12:18:33.873Z,101382.09
2022-08-26T12:23:57.041Z,101365.22
2022-08-26T12:29:27.340Z,101375.91
2022-08-26T12:34:48.976Z,101356.63
2022-08-26T12:40:31.260Z,101370.59
2022-08-26T12:45:58.388Z,101371.97
2022-08-26T12:51:24.398Z,101377.91
2022-08-26T12:56:44.874Z,101385.88
2022-08-26T13:02:05.591Z,101392.44
2022-08-26T13:07:27.008Z,101401.63
2022-08-26T13:12:47.590Z,101387.25
2022-08-26T13:18:08.440Z,101397.06
2022-08-26T13:23:28.967Z,101391.63
2022-08-26T13:29:02.130Z,101397.09
2022-08-26T13:34:24.008Z,101384.72
2022-08-26T13:39:44.951Z,101370.69
2022-08-26T13:45:06.451Z,101351.13
2022-08-26T13:50:27.714Z,101338.06
2022-08-26T13:55:49.140Z,101315.53
2022-08-26T14:01:09.607Z,101334.47
2022-08-26T14:06:30.524Z,101334.47
2022-08-26T14:11:54.714Z,101330.38
2022-08-26T14:17:21.036Z,101341.69
2022-08-26T14:23:03.667Z,101353.66
2022-08-26T14:33:51.489Z,101383.72
2022-08-26T14:39:13.387Z,101378.38
2022-08-26T14:44:34.405Z,101387.63
2022-08-26T14:49:54.678Z,101400.34
2022-08-26T14:55:15.232Z,101388.41
2022-08-26T15:00:37.017Z,101399.50
2022-08-26T15:05:57.851Z,101395.41
2022-08-26T15:11:18.404Z,101415.75
2022-08-26T15:16:39.394Z,101432.50
2022-08-26T15:21:59.923Z,101440.41
2022-08-26T15:27:20.644Z,101439.91
2022-08-26T15:32:41.383Z,101440.47
2022-08-26T15:38:01.927Z,101450.13
2022-08-26T15:43:28.779Z,101445.78
2022-08-26T15:48:50.015Z,101446.69
2022-08-26T15:54:10.738Z,101445.41
2022-08-26T15:59:31.657Z,101440.66
2022-08-26T16:04:52.093Z,101438.56
2022-08-26T16:10:15.287Z,101443.94
2022-08-26T16:15:36.494Z,101422.09
2022-08-26T16:21:12.434Z,101418.03
2022-08-26T16:26:37.574Z,101424.47
2022-08-26T16:31:58.273Z,101426.94
2022-08-26T16:37:19.552Z,101420.97
2022-08-26T16:42:40.235Z,101411.69
2022-08-26T16:48:00.563Z,101407.25
2022-08-26T16:53:21.408Z,101386.72
2022-08-26T16:58:42.288Z,101403.50
2022-08-26T17:04:03.020Z,101420.34
2022-08-26T17:09:24.603Z,101418.72
2022-08-26T17:14:45.836Z,101411.63
2022-08-26T17:20:10.420Z,101399.75
2022-08-26T17:25:31.927Z,101411.16
2022-08-26T17:30:52.552Z,101416.75
2022-08-26T17:36:13.808Z,101413.66
2022-08-26T17:41:34.498Z,101432.97
2022-08-26T17:46:55.308Z,101420.91
2022-08-26T17:52:15.839Z,101422.69
2022-08-26T17:57:40.811Z,101423.69
2022-08-26T18:03:03.875Z,101402.94
2022-08-26T18:08:24.303Z,101414.78
2022-08-26T18:13:47.490Z,101390.91
2022-08-26T18:19:08.683Z,101408.50
2022-08-26T18:24:32.065Z,101417.63
2022-08-26T18:29:52.624Z,101426.66
2022-08-26T18:35:13.825Z,101438.19
2022-08-26T18:40:37.488Z,101449.69
2022-08-26T18:46:06.880Z,101453.19
2022-08-26T18:51:30.004Z,101457.84
2022-08-26T18:56:50.735Z,101467.31
2022-08-26T19:02:11.832Z,101457.91
2022-08-26T19:07:34.610Z,101480.66
2022-08-26T19:13:00.669Z,101479.94
2022-08-26T19:18:22.971Z,101483.44
2022-08-26T19:23:43.495Z,101489.56
2022-08-26T19:29:04.266Z,101493.16
2022-08-26T19:34:25.554Z,101493.97
2022-08-26T19:39:49.953Z,101499.03
2022-08-26T19:45:24.853Z,101507.75
2022-08-26T19:50:46.584Z,101508.75
2022-08-26T19:56:07.131Z,101508.03
2022-08-26T20:01:28.257Z,101509.88
2022-08-26T20:06:48.534Z,101507.44
2022-08-26T20:12:17.416Z,101508.56
2022-08-26T20:17:38.897Z,101504.50
2022-08-26T20:22:59.672Z,101502.19
2022-08-26T20:28:20.097Z,101500.63
2022-08-26T20:33:46.274Z,101498.25
2022-08-26T20:39:07.872Z,101490.50
2022-08-26T20:44:28.579Z,101494.09
2022-08-26T20:49:49.035Z,101493.31
2022-08-26T20:55:13.622Z,101478.59
2022-08-26T21:00:34.815Z,101501.25
2022-08-26T21:05:55.614Z,101501.34
2022-08-26T21:11:18.009Z,101493.63
2022-08-26T21:16:40.627Z,101495.50
2022-08-26T21:22:01.017Z,101501.59
2022-08-26T21:27:26.090Z,101499.06
2022-08-26T21:32:46.977Z,101494.97
2022-08-26T21:38:07.526Z,101493.41
2022-08-26T21:43:35.138Z,101490.16
2022-08-26T21:49:01.212Z,101489.25
2022-08-26T21:54:21.960Z,101491.06
2022-08-26T21:59:43.386Z,101485.91
2022-08-26T22:05:05.019Z,101495.72
2022-08-26T22:10:25.679Z,101500.97
2022-08-26T22:15:47.794Z,101500.97
2022-08-26T22:21:12.276Z,101510.63
2022-08-26T22:26:33.680Z,101510.63
2022-08-26T22:31:54.357Z,101531.38
2022-08-26T22:37:14.910Z,101522.69
2022-08-26T22:42:35.536Z,101523.53
2022-08-26T22:47:56.931Z,101527.81
2022-08-26T22:53:18.393Z,101529.50
2022-08-26T22:58:39.329Z,101537.38
2022-08-26T23:03:59.948Z,101535.66
2022-08-26T23:09:20.393Z,101533.00
2022-08-26T23:14:43.846Z,101521.78
2022-08-26T23:20:08.781Z,101524.38
2022-08-26T23:25:30.987Z,101530.47
2022-08-26T23:30:53.582Z,101521.78
2022-08-26T23:36:17.593Z,101520.09
2022-08-26T23:41:39.055Z,101521.00
2022-08-26T23:46:59.706Z,101505.44
2022-08-26T23:52:38.852Z,101497.75
2022-08-26T23:57:59.181Z,101502.94
